ENTC Airport Information

Runway Information
Runway 01 Length 7848 ft width 148 ft
Elevation 25 ft Threshold 0 ft Heading 13
Runway 19 Length 7848 ft Width 148 ft
Elevation 13 ft Threshold 1286 ft Heading 193
Airport Frequencies
Type APP Name APP Frequency 123.75 MHZ
Type ATIS Name ATIS Frequency 126.125 MHZ
Type TWR Name TWR Frequency 118.3 MHZ
Airport Navaids
Type NDB Name Kobbe Frequency 283 KHZ
Type NDB Name Kvalsund Frequency 362 KHZ
Type NDB Name Lanes Frequency 268 KHZ
Type VOR-DME Name Tromso Frequency 113800 KHZ
Airport Weather Information & NOTAM
ADDS - METARS form results

(2148 UTC 12 December 2018)
Data provider http://aviationweather.gov/metar/data/
 
METAR text: ENTC 122120Z 23023KT 9999 BKN035 04/M00 Q1025 NOSIG
Conditions at: ENTC (TROMSO/LANGNES , NO) observed 2120 UTC 12 December 2018
Temperature: 4.0°C (39°F)
Dewpoint: 0.0°C (32°F) [RH = 75%]
Pressure (altimeter): 30.27 inches Hg (1025.0 mb)
Winds: from the SW (230 degrees) at 26 MPH (23 knots; 11.8 m/s)
Visibility: 6 or more miles (10+ km)
Ceiling: 3500 feet AGL
Clouds: broken clouds at 3500 feet AGL
Weather: no significant weather observed at this time

METAR text: ENTC 122050Z 22022KT 9999 FEW030 BKN080 04/M00 Q1025 NOSIG RMK WIND 2600FT 23017KT
Conditions at: ENTC (TROMSO/LANGNES , NO) observed 2050 UTC 12 December 2018
Temperature: 4.0°C (39°F)
Dewpoint: 0.0°C (32°F) [RH = 75%]
Pressure (altimeter): 30.27 inches Hg (1025.0 mb)
Winds: from the SW (220 degrees) at 25 MPH (22 knots; 11.3 m/s)
Visibility: 6 or more miles (10+ km)
Ceiling: 8000 feet AGL
Clouds: few clouds at 3000 feet AGL
broken clouds at 8000 feet AGL
Weather: no significant weather observed at this time

Forecast for: ENTC (TROMSO/LANGNES , NO)
Text: ENTC 1218/1318 21017KT 9999 FEW008 BKN025
Forecast period: 1800 UTC 12 December 2018 to 1800 UTC 13 December 2018
Forecast type: FROM: standard forecast or significant change
Winds: from the SSW (210 degrees) at 20 MPH (17 knots; 8.7 m/s)
Visibility: 6 or more miles 10+ km)
Ceiling: 2500 feet AGL
Clouds: few clouds at 800 feet AGL
broken clouds at 2500 feet AGL
Weather: no significant weather forecast for this period
Text: PROB30
Forecast period: 0600 to 1800 UTC 13 December 2018
Forecast type: TEMPORARY: The following changes expected for less than half the time period
Winds: from the WSW (240 degrees) at 23 MPH (20 knots; 10.3 m/s)
gusting to 34 MPH (30 knots; 15.4 m/s)
Visibility: missing
Ceiling: 1200 feet AGL
Clouds: broken clouds at 1200 feet AGL
Weather: no significant weather forecast for this period